Time;durP1;ratioP1;P1;durP2;ratioP2;P2;SDS_P1;SDS_P2;PMS_P1;PMS_P2;Temp;Humidity;BMP_temperature;BMP_pressure;BME280_temperature;BME280_humidity;BME280_pressure;Samples;Min_cycle;Max_cycle;Signal;HPM_P1;HPM_P2
2023/11/26 00:01:05;;;;;;;9.77;4.60;;;;;;;1.68;100.00;101564.81;5089369;28;20028;-35
2023/11/26 00:03:30;;;;;;;8.80;5.07;;;;;;;1.65;100.00;101574.94;5090450;28;20030;-35
2023/11/26 00:05:55;;;;;;;10.60;4.23;;;;;;;1.59;100.00;101576.41;5090001;28;20452;-35
2023/11/26 00:08:21;;;;;;;8.87;4.03;;;;;;;1.51;100.00;101569.19;5080414;28;20036;-35
2023/11/26 00:10:46;;;;;;;10.33;4.37;;;;;;;1.53;100.00;101574.34;5076009;28;20070;-35
2023/11/26 00:13:11;;;;;;;6.93;3.47;;;;;;;1.51;100.00;101568.31;5075955;28;20055;-35
2023/11/26 00:15:37;;;;;;;7.13;3.70;;;;;;;1.52;100.00;101572.69;5076710;28;20016;-35
2023/11/26 00:18:02;;;;;;;9.17;3.83;;;;;;;1.48;100.00;101576.66;5075923;28;20416;-35
2023/11/26 00:20:28;;;;;;;8.17;3.83;;;;;;;1.45;100.00;101571.59;5076218;28;20032;-35
2023/11/26 00:22:53;;;;;;;9.53;4.27;;;;;;;1.49;100.00;101572.97;5076665;28;20392;-35
2023/11/26 00:25:18;;;;;;;9.07;3.63;;;;;;;1.46;100.00;101570.63;5076313;28;20070;-35
2023/11/26 00:27:44;;;;;;;6.77;3.43;;;;;;;1.46;100.00;101567.94;5076009;28;20025;-35
2023/11/26 00:30:09;;;;;;;7.37;3.60;;;;;;;1.46;100.00;101570.63;5075708;28;20027;-35
2023/11/26 00:32:35;;;;;;;6.82;3.67;;;;;;;1.46;100.00;101558.13;5076725;28;20032;-35
2023/11/26 00:35:00;;;;;;;10.67;3.67;;;;;;;1.48;100.00;101564.16;5075864;28;20393;-35
2023/11/26 00:37:25;;;;;;;6.60;3.63;;;;;;;1.52;100.00;101570.03;5075864;28;20031;-35
2023/11/26 00:39:51;;;;;;;9.07;3.93;;;;;;;1.50;100.00;101566.66;5075482;28;20021;-35
2023/11/26 00:42:17;;;;;;;10.20;3.90;;;;;;;1.36;100.00;101543.22;5076594;28;20048;-35
2023/11/26 00:44:42;;;;;;;7.90;3.53;;;;;;;1.46;100.00;101555.47;5075986;28;20034;-35
2023/11/26 00:47:07;;;;;;;12.13;4.47;;;;;;;1.58;100.00;101569.41;5076163;28;20029;-35
2023/11/26 00:49:33;;;;;;;9.10;4.17;;;;;;;1.60;100.00;101566.56;5075600;28;20040;-35
2023/11/26 00:51:58;;;;;;;10.37;4.00;;;;;;;1.61;100.00;101571.75;5075272;28;20104;-35
2023/11/26 00:54:24;;;;;;;9.67;3.60;;;;;;;1.59;100.00;101559.56;5075490;28;20047;-35
2023/11/26 00:56:49;;;;;;;9.97;4.23;;;;;;;1.68;100.00;101574.63;5076061;28;20441;-35
2023/11/26 00:59:14;;;;;;;10.17;4.40;;;;;;;1.75;100.00;101573.84;5075184;28;20056;-35
2023/11/26 01:01:39;;;;;;;8.53;3.07;;;;;;;1.69;100.00;101566.47;5075695;28;20016;-35
2023/11/26 01:04:05;;;;;;;10.03;3.80;;;;;;;1.61;100.00;101553.09;5075295;28;20012;-35
2023/11/26 01:06:31;;;;;;;10.30;3.50;;;;;;;1.60;100.00;101570.06;5075598;28;20029;-35
2023/11/26 01:08:56;;;;;;;10.82;4.20;;;;;;;1.64;100.00;101568.78;5074883;28;20111;-35
2023/11/26 01:11:21;;;;;;;10.83;4.23;;;;;;;1.57;100.00;101564.22;5075485;28;20016;-35
2023/11/26 01:13:47;;;;;;;9.87;3.73;;;;;;;1.74;100.00;101566.00;5075921;28;20454;-35
2023/11/26 01:16:12;;;;;;;12.50;4.80;;;;;;;1.59;100.00;101559.56;5075618;28;20024;-35
2023/11/26 01:18:39;;;;;;;10.60;4.97;;;;;;;1.58;100.00;101564.06;5075250;28;20111;-35
2023/11/26 01:21:06;;;;;;;13.80;5.30;;;;;;;1.64;100.00;101558.09;5074279;28;20024;-35
2023/11/26 01:23:31;;;;;;;11.35;5.65;;;;;;;1.57;100.00;101567.72;5074585;28;20500;-35
2023/11/26 01:25:57;;;;;;;11.57;5.75;;;;;;;1.67;100.00;101571.13;5075470;28;20131;-35
2023/11/26 01:28:23;;;;;;;14.20;5.93;;;;;;;1.61;100.00;101565.56;5074811;28;20020;-35
2023/11/26 01:30:48;;;;;;;10.50;4.80;;;;;;;1.65;100.00;101567.78;5074780;28;20476;-35
2023/11/26 01:33:14;;;;;;;10.23;4.27;;;;;;;1.65;100.00;101558.94;5075312;28;20021;-35
2023/11/26 01:35:40;;;;;;;11.48;5.15;;;;;;;1.68;100.00;101563.97;5075432;28;20028;-35
2023/11/26 01:38:05;;;;;;;7.97;4.27;;;;;;;1.74;100.00;101566.84;5075196;28;20027;-35
2023/11/26 01:40:37;;;;;;;7.43;4.00;;;;;;;1.74;100.00;101566.84;5074570;28;20337;-35
2023/11/26 01:43:03;;;;;;;8.32;4.13;;;;;;;1.74;100.00;101574.00;5074204;28;20018;-35
2023/11/26 01:45:29;;;;;;;10.43;3.95;;;;;;;1.70;100.00;101577.97;5075342;28;20086;-35
2023/11/26 01:47:54;;;;;;;10.38;4.00;;;;;;;1.72;100.00;101576.84;5074646;28;20067;-35
2023/11/26 01:50:22;;;;;;;5.60;3.45;;;;;;;1.71;100.00;101572.50;5074651;28;20127;-35
2023/11/26 01:52:53;;;;;;;8.02;3.60;;;;;;;1.75;100.00;101571.19;5074576;28;20048;-35
2023/11/26 01:55:21;;;;;;;9.10;3.70;;;;;;;1.88;100.00;101577.94;5074621;28;20028;-35
2023/11/26 01:57:46;;;;;;;11.82;3.90;;;;;;;1.78;100.00;101576.22;5074173;28;20028;-36
2023/11/26 02:00:14;;;;;;;7.53;3.95;;;;;;;1.80;100.00;101579.53;5074261;28;20035;-35
2023/11/26 02:02:40;;;;;;;6.43;3.95;;;;;;;1.72;100.00;101582.19;5074100;28;20490;-35
2023/11/26 02:05:09;;;;;;;9.88;3.92;;;;;;;1.77;100.00;101579.88;5073804;28;20092;-35
2023/11/26 02:07:35;;;;;;;8.60;3.35;;;;;;;1.78;100.00;101570.88;5074599;28;20032;-35
2023/11/26 02:10:01;;;;;;;7.55;3.38;;;;;;;1.73;100.00;101583.00;5074016;28;20089;-35
2023/11/26 02:12:26;;;;;;;10.48;3.13;;;;;;;1.80;100.00;101576.03;5074310;28;20063;-35
2023/11/26 02:14:52;;;;;;;7.37;2.97;;;;;;;1.80;100.00;101584.88;5074244;28;20475;-35
2023/11/26 02:17:17;;;;;;;6.93;3.10;;;;;;;1.76;100.00;101569.38;5073854;28;20024;-35
2023/11/26 02:19:44;;;;;;;7.23;3.10;;;;;;;1.67;100.00;101567.63;5074132;28;20020;-35
2023/11/26 02:22:10;;;;;;;6.35;3.00;;;;;;;1.68;100.00;101580.81;5074433;28;20125;-35
2023/11/26 02:24:49;;;;;;;6.63;2.90;;;;;;;1.66;100.00;101564.13;5073819;28;20063;-35
2023/11/26 02:27:15;;;;;;;10.02;3.35;;;;;;;1.72;100.00;101582.19;5074598;28;20392;-35
2023/11/26 02:29:41;;;;;;;9.07;3.40;;;;;;;1.80;100.00;101573.38;5073542;28;20016;-35
2023/11/26 02:32:07;;;;;;;9.98;3.65;;;;;;;1.72;100.00;101560.84;5073562;28;20029;-35
2023/11/26 02:34:33;;;;;;;8.13;3.47;;;;;;;1.78;100.00;101586.88;5073978;28;20467;-35
2023/11/26 02:36:58;;;;;;;6.80;3.30;;;;;;;1.82;100.00;101582.06;5074463;28;20023;-35
2023/11/26 02:39:24;;;;;;;10.43;3.90;;;;;;;1.65;100.00;101557.09;5073441;28;20021;-35
2023/11/26 02:41:49;;;;;;;9.73;3.57;;;;;;;1.61;100.00;101557.56;5073697;28;20020;-35
2023/11/26 02:44:15;;;;;;;9.13;3.63;;;;;;;1.76;100.00;101578.22;5073333;28;20345;-35
2023/11/26 02:46:42;;;;;;;9.07;3.53;;;;;;;1.72;100.00;101574.19;5073610;28;20028;-36
2023/11/26 02:49:08;;;;;;;7.65;3.08;;;;;;;1.77;100.00;101584.38;5073500;28;20107;-35
2023/11/26 02:51:34;;;;;;;10.07;4.22;;;;;;;1.77;100.00;101585.22;5073614;28;20116;-35
2023/11/26 02:53:59;;;;;;;12.30;3.67;;;;;;;1.68;100.00;101583.47;5073165;28;20453;-35
2023/11/26 02:56:25;;;;;;;8.10;3.40;;;;;;;1.67;100.00;101578.31;5074330;28;20287;-35
2023/11/26 02:58:50;;;;;;;8.27;3.60;;;;;;;1.73;100.00;101586.50;5073432;28;20024;-35
2023/11/26 03:01:21;;;;;;;10.57;3.47;;;;;;;1.80;100.00;101578.72;5074271;28;20044;-35
2023/11/26 03:03:47;;;;;;;8.02;2.63;;;;;;;1.76;100.00;101567.53;5073420;28;20271;-35
2023/11/26 03:06:15;;;;;;;9.75;2.85;;;;;;;1.85;100.00;101578.25;5073683;28;20104;-35
2023/11/26 03:08:43;;;;;;;9.02;3.20;;;;;;;1.84;100.00;101573.91;5073832;28;20024;-35
2023/11/26 03:13:53;;;;;;;10.73;3.13;;;;;;;1.93;100.00;101575.66;5073622;28;20078;-35
2023/11/26 03:16:18;;;;;;;5.63;2.80;;;;;;;1.97;100.00;101585.00;5073753;28;20028;-35
2023/11/26 03:18:44;;;;;;;8.67;3.03;;;;;;;1.97;100.00;101580.50;5073777;28;20101;-35
2023/11/26 03:21:15;;;;;;;9.47;2.90;;;;;;;2.01;100.00;101583.72;5073809;28;20024;-35
2023/11/26 03:23:41;;;;;;;7.63;3.00;;;;;;;1.90;100.00;101571.44;5073780;28;20051;-35
2023/11/26 03:26:06;;;;;;;6.88;2.80;;;;;;;2.03;100.00;101571.03;5073799;28;20520;-35
2023/11/26 03:28:32;;;;;;;7.87;2.67;;;;;;;2.03;100.00;101553.19;5073478;28;20024;-35
2023/11/26 03:30:57;;;;;;;10.30;3.87;;;;;;;2.11;100.00;101572.94;5073744;28;20017;-35
2023/11/26 03:33:22;;;;;;;7.90;3.43;;;;;;;2.08;100.00;101566.06;5073130;28;20020;-35
2023/11/26 03:35:49;;;;;;;7.57;2.60;;;;;;;2.09;100.00;101567.72;5073385;28;20025;-35
2023/11/26 03:38:14;;;;;;;;;;;;;;;2.13;100.00;101574.44;5073479;28;20025;-35
2023/11/26 03:40:40;;;;;;;12.55;3.33;;;;;;;2.08;100.00;101571.41;5073905;28;19967;-35
2023/11/26 03:43:06;;;;;;;6.65;2.55;;;;;;;2.18;100.00;101576.63;5074470;28;20024;-35
2023/11/26 03:45:32;;;;;;;10.20;2.88;;;;;;;2.14;100.00;101572.59;5076774;28;20052;-35
2023/11/26 03:47:57;;;;;;;5.40;2.22;;;;;;;2.15;100.00;101577.81;5076669;28;20063;-35
2023/11/26 03:50:23;;;;;;;6.20;2.50;;;;;;;2.15;100.00;101579.59;5077253;28;20120;-35
2023/11/26 03:52:49;;;;;;;10.88;3.15;;;;;;;2.10;100.00;101580.09;5076862;28;20089;-35
2023/11/26 03:55:15;;;;;;;7.63;3.13;;;;;;;2.12;100.00;101572.78;5077489;28;20349;-35
2023/11/26 03:57:41;;;;;;;6.07;2.78;;;;;;;2.11;100.00;101576.44;5076612;28;20045;-35
2023/11/26 04:00:08;;;;;;;11.50;3.05;;;;;;;2.12;100.00;101578.09;5076553;28;20028;-35
2023/11/26 04:02:34;;;;;;;6.10;2.65;;;;;;;2.09;100.00;101580.25;5077033;28;20020;-35
2023/11/26 04:05:00;;;;;;;8.13;2.75;;;;;;;2.03;100.00;101563.03;5076665;28;20158;-35
2023/11/26 04:07:25;;;;;;;7.60;2.47;;;;;;;2.13;100.00;101594.94;5076468;28;20028;-35
2023/11/26 04:09:52;;;;;;;7.83;2.40;;;;;;;2.03;100.00;101565.72;5076350;28;20266;-35
2023/11/26 04:12:18;;;;;;;;;;;;;;;2.20;100.00;101585.34;5077555;28;20035;-35
2023/11/26 04:14:58;;;;;;;6.15;2.72;;;;;;;2.17;100.00;101581.13;5076302;28;19998;-35
2023/11/26 04:17:27;;;;;;;8.57;3.03;;;;;;;2.23;100.00;101591.16;5076692;28;20079;-35
2023/11/26 04:19:53;;;;;;;7.22;2.60;;;;;;;2.25;100.00;101588.38;5076752;28;20024;-35
2023/11/26 04:22:22;;;;;;;9.05;2.53;;;;;;;2.28;100.00;101591.53;5076745;28;20024;-35
2023/11/26 04:24:48;;;;;;;6.50;2.67;;;;;;;2.30;100.00;101589.56;5075783;28;20031;-35
2023/11/26 04:27:16;;;;;;;9.15;2.60;;;;;;;2.31;100.00;101591.22;5076087;28;20032;-35
2023/11/26 04:29:41;;;;;;;8.02;3.05;;;;;;;2.24;100.00;101571.50;5075974;28;20027;-35
2023/11/26 04:32:07;;;;;;;6.63;2.30;;;;;;;2.37;100.00;101591.59;5076802;28;20024;-35
2023/11/26 04:34:32;;;;;;;7.15;2.67;;;;;;;2.40;100.00;101584.09;5076204;28;20047;-35
2023/11/26 04:36:58;;;;;;;5.07;2.33;;;;;;;2.41;100.00;101587.59;5076687;28;20031;-35
2023/11/26 04:39:24;;;;;;;9.80;2.60;;;;;;;2.42;100.00;101587.44;5076333;28;20699;-35
2023/11/26 04:41:52;;;;;;;6.35;2.42;;;;;;;2.46;100.00;101582.63;5076035;28;20507;-35
2023/11/26 04:44:20;;;;;;;7.05;3.00;;;;;;;2.48;100.00;101585.97;5075986;28;20028;-35
2023/11/26 04:46:48;;;;;;;9.95;2.55;;;;;;;2.44;100.00;101576.59;5076036;28;20025;-35
2023/11/26 04:49:13;;;;;;;6.03;2.33;;;;;;;2.48;100.00;101580.63;5075672;28;20368;-35
2023/11/26 04:51:38;;;;;;;7.37;2.20;;;;;;;2.58;100.00;101592.00;5108549;28;20100;-35
2023/11/26 04:54:04;;;;;;;9.53;2.43;;;;;;;2.59;100.00;101596.38;5076068;28;20028;-35
2023/11/26 04:56:29;;;;;;;7.65;2.53;;;;;;;2.60;100.00;101597.22;5075399;28;20040;-35
2023/11/26 04:58:54;;;;;;;8.40;2.53;;;;;;;2.53;100.00;101583.66;5075263;28;20024;-35
2023/11/26 05:01:22;;;;;;;8.50;3.70;;;;;;;2.51;100.00;101573.13;5075011;28;20021;-40
2023/11/26 05:03:48;;;;;;;10.43;2.70;;;;;;;2.60;100.00;101578.50;5075023;28;20031;-35
2023/11/26 05:06:13;;;;;;;8.40;2.97;;;;;;;2.74;100.00;101591.25;5075593;28;20032;-35
2023/11/26 05:08:40;;;;;;;9.37;2.67;;;;;;;2.75;100.00;101591.09;5075587;28;20020;-35
2023/11/26 05:11:06;;;;;;;11.73;3.20;;;;;;;2.77;100.00;101596.25;5074927;28;20050;-35
2023/11/26 05:13:32;;;;;;;7.15;2.70;;;;;;;2.68;100.00;101568.69;5075400;28;20050;-35
2023/11/26 05:15:58;;;;;;;;;;;;;;;2.82;100.00;101585.94;5075441;28;20452;-35
2023/11/26 05:18:23;;;;;;;7.75;2.72;;;;;;;2.81;100.00;101594.94;5075604;28;19908;-35
2023/11/26 05:20:48;;;;;;;9.13;2.60;;;;;;;2.73;100.00;101571.72;5075058;28;20020;-35
2023/11/26 05:23:14;;;;;;;7.73;2.20;;;;;;;2.80;100.00;101586.09;5075000;28;20111;-35
2023/11/26 05:25:40;;;;;;;7.57;2.88;;;;;;;2.74;100.00;101575.22;5074959;28;20042;-35
2023/11/26 05:28:05;;;;;;;5.53;1.90;;;;;;;2.81;100.00;101594.94;5075392;28;20078;-35
2023/11/26 05:30:30;;;;;;;6.90;2.20;;;;;;;2.77;100.00;101588.25;5075215;28;20478;-35
2023/11/26 05:32:57;;;;;;;6.07;2.20;;;;;;;2.68;100.00;101579.34;5075606;28;20035;-35
2023/11/26 05:35:23;;;;;;;5.70;2.05;;;;;;;2.80;100.00;101594.09;5075008;28;20472;-35
2023/11/26 05:37:48;;;;;;;6.25;1.83;;;;;;;2.81;100.00;101593.09;5074319;28;20024;-35
2023/11/26 05:40:14;;;;;;;6.00;2.07;;;;;;;2.86;100.00;101602.47;5075234;28;20032;-35
2023/11/26 05:42:40;;;;;;;;;;;;;;;2.90;100.00;101603.81;5074958;28;20044;-35
2023/11/26 05:45:06;;;;;;;4.40;1.88;;;;;;;2.87;100.00;101598.78;5074199;28;19946;-35
2023/11/26 05:47:31;;;;;;;5.47;2.20;;;;;;;2.73;100.00;101582.41;5074244;28;20050;-35
2023/11/26 05:49:57;;;;;;;9.63;2.03;;;;;;;2.82;100.00;101589.44;5075238;28;20021;-35
2023/11/26 05:52:23;;;;;;;6.93;1.80;;;;;;;2.81;100.00;101587.75;5075263;28;20029;-35
2023/11/26 05:54:48;;;;;;;5.57;1.80;;;;;;;2.88;100.00;101601.31;5074671;28;20020;-35
2023/11/26 05:57:13;;;;;;;4.17;1.60;;;;;;;2.81;100.00;101605.63;5074743;28;20139;-35
2023/11/26 05:59:39;;;;;;;6.47;2.20;;;;;;;2.77;100.00;101609.63;5074108;28;20028;-35
2023/11/26 06:02:06;;;;;;;7.20;2.37;;;;;;;2.77;100.00;101610.44;5074578;28;20417;-35
2023/11/26 06:04:31;;;;;;;7.90;2.78;;;;;;;2.80;100.00;101614.66;5073814;28;20381;-35
2023/11/26 06:06:56;;;;;;;5.55;1.90;;;;;;;2.55;100.00;101571.00;5073929;28;20039;-35
2023/11/26 06:09:22;;;;;;;5.07;1.53;;;;;;;2.69;100.00;101606.94;5073865;28;20025;-35
2023/11/26 06:11:48;;;;;;;6.30;2.17;;;;;;;2.82;100.00;101601.94;5074385;28;20042;-35
2023/11/26 06:14:13;;;;;;;7.90;2.10;;;;;;;2.77;100.00;101588.25;5074052;28;20017;-35
2023/11/26 06:16:41;;;;;;;6.90;2.20;;;;;;;2.84;100.00;101600.81;5074218;28;20097;-35
2023/11/26 06:19:07;;;;;;;6.03;2.03;;;;;;;2.95;100.00;101593.50;5073953;28;20017;-35
2023/11/26 06:21:32;;;;;;;10.55;1.90;;;;;;;2.94;100.00;101595.31;5073959;28;20028;-35
2023/11/26 06:23:58;;;;;;;8.13;2.10;;;;;;;2.94;100.00;101594.50;5073649;28;20021;-35
2023/11/26 06:26:24;;;;;;;7.43;2.53;;;;;;;3.03;100.00;101593.53;5074385;28;20025;-35
2023/11/26 06:28:49;;;;;;;7.13;2.33;;;;;;;3.05;100.00;101595.00;5073847;28;20051;-35
2023/11/26 06:31:21;;;;;;;7.90;2.30;;;;;;;3.02;100.00;101575.78;5073515;28;20349;-35
2023/11/26 06:33:46;;;;;;;6.68;2.30;;;;;;;3.14;100.00;101592.38;5073441;28;20016;-35
2023/11/26 06:36:19;;;;;;;9.10;2.70;;;;;;;3.02;100.00;101571.28;5073666;28;20021;-35
2023/11/26 06:38:45;;;;;;;10.02;2.20;;;;;;;3.19;100.00;101590.03;5073635;28;20111;-35
2023/11/26 06:41:24;;;;;;;10.50;2.50;;;;;;;3.20;100.00;101584.53;5073965;28;20031;-35
2023/11/26 06:43:51;;;;;;;8.02;2.20;;;;;;;3.13;100.00;101577.34;5074352;28;20031;-35
2023/11/26 06:46:18;;;;;;;6.65;2.40;;;;;;;3.24;100.00;101590.38;5073502;28;20440;-35
2023/11/26 06:48:43;;;;;;;7.15;2.47;;;;;;;3.20;100.00;101581.84;5073301;28;20395;-35
2023/11/26 06:51:10;;;;;;;8.50;2.75;;;;;;;3.18;100.00;101567.00;5073046;28;20031;-35
2023/11/26 06:53:35;;;;;;;10.57;3.45;;;;;;;3.29;100.00;101588.03;5073215;28;20025;-35
2023/11/26 06:56:00;;;;;;;6.10;2.67;;;;;;;3.31;100.00;101588.72;5073826;28;20043;-35
2023/11/26 06:58:26;;;;;;;9.67;3.10;;;;;;;3.22;100.00;101577.19;5073223;28;20357;-35
2023/11/26 07:00:51;;;;;;;7.37;2.47;;;;;;;3.29;100.00;101583.53;5073211;28;20050;-35
2023/11/26 07:03:17;;;;;;;8.07;2.70;;;;;;;3.34;100.00;101591.88;5072784;28;20033;-35
2023/11/26 07:05:42;;;;;;;7.97;2.77;;;;;;;3.37;100.00;101590.75;5073407;28;20027;-35
2023/11/26 07:08:07;;;;;;;8.57;3.03;;;;;;;3.38;100.00;101591.56;5073544;28;20455;-36
2023/11/26 07:10:35;;;;;;;7.93;2.73;;;;;;;3.38;100.00;101587.06;5073633;28;20062;-34
2023/11/26 07:13:01;;;;;;;8.45;3.15;;;;;;;3.35;100.00;101576.69;5072926;28;20016;-35
2023/11/26 07:15:26;;;;;;;8.33;3.23;;;;;;;3.40;100.00;101586.88;5073281;28;20058;-35
2023/11/26 07:17:51;;;;;;;10.37;5.33;;;;;;;3.44;100.00;101590.91;5074598;28;20287;-35
2023/11/26 07:20:17;;;;;;;9.57;4.53;;;;;;;3.44;100.00;101581.03;5077324;28;20099;-35
2023/11/26 07:22:43;;;;;;;9.07;3.85;;;;;;;3.44;100.00;101581.03;5076918;28;20153;-35
2023/11/26 07:25:08;;;;;;;7.47;4.35;;;;;;;3.48;100.00;101592.25;5076902;28;20024;-35
2023/11/26 07:27:33;;;;;;;9.60;3.45;;;;;;;3.48;100.00;101586.91;5076819;28;20023;-35
2023/11/26 07:29:59;;;;;;;9.70;3.83;;;;;;;3.47;100.00;101580.72;5076438;28;20161;-34
2023/11/26 07:32:26;;;;;;;7.40;3.15;;;;;;;3.51;100.00;101594.56;5076417;28;20032;-35
2023/11/26 07:34:52;;;;;;;9.68;3.42;;;;;;;3.40;100.00;101579.69;5076608;28;20021;-34
2023/11/26 07:37:18;;;;;;;5.63;3.10;;;;;;;3.50;100.00;101595.59;5077355;28;20035;-34
2023/11/26 07:39:43;;;;;;;11.03;3.90;;;;;;;3.53;100.00;101600.59;5076627;28;20039;-34
2023/11/26 07:42:08;;;;;;;8.37;3.53;;;;;;;3.51;100.00;101595.41;5076838;28;20023;-34
2023/11/26 07:44:34;;;;;;;7.80;3.53;;;;;;;3.54;100.00;101597.75;5076566;28;20440;-34
2023/11/26 07:47:01;;;;;;;8.00;3.70;;;;;;;3.56;100.00;101594.91;5076491;28;20030;-35
2023/11/26 07:49:30;;;;;;;7.03;3.42;;;;;;;3.56;100.00;101600.25;5077090;28;20348;-35
2023/11/26 07:51:55;;;;;;;8.32;3.53;;;;;;;3.58;100.00;101603.63;5076637;28;20380;-35
2023/11/26 07:54:21;;;;;;;9.43;3.78;;;;;;;3.58;100.00;101604.44;5076285;28;20023;-35
2023/11/26 07:56:47;;;;;;;10.65;4.20;;;;;;;3.59;100.00;101602.59;5076053;28;20036;-35
2023/11/26 07:59:12;;;;;;;4.93;3.05;;;;;;;3.59;100.00;101600.75;5076183;28;20096;-35
2023/11/26 08:01:38;;;;;;;10.27;3.40;;;;;;;3.64;100.00;101592.25;5075844;28;20021;-35
2023/11/26 08:04:03;;;;;;;9.73;4.17;;;;;;;3.67;100.00;101591.91;5076613;28;20021;-35
2023/11/26 08:06:29;;;;;;;9.02;4.07;;;;;;;3.68;100.00;101598.94;5076662;28;20024;-35
2023/11/26 08:08:59;;;;;;;7.03;3.60;;;;;;;3.69;100.00;101595.25;5075813;28;20028;-35
2023/11/26 08:11:24;;;;;;;8.27;3.42;;;;;;;3.73;100.00;101595.75;5075770;28;20024;-35
2023/11/26 08:13:49;;;;;;;8.77;4.03;;;;;;;3.77;100.00;101591.75;5075810;28;20020;-36
2023/11/26 08:16:17;;;;;;;10.67;4.10;;;;;;;3.70;100.00;101582.72;5076748;28;20021;-35
2023/11/26 08:18:42;;;;;;;11.15;4.18;;;;;;;3.78;100.00;101591.56;5076152;28;20441;-35
2023/11/26 08:21:08;;;;;;;9.23;3.47;;;;;;;3.78;100.00;101596.09;5075966;28;20025;-35
2023/11/26 08:23:40;;;;;;;7.53;4.10;;;;;;;3.83;100.00;101596.41;5076105;28;20482;-35
2023/11/26 08:26:09;;;;;;;9.98;4.82;;;;;;;3.84;100.00;101598.91;5076096;28;20380;-35
2023/11/26 08:28:34;;;;;;;9.35;4.50;;;;;;;3.86;100.00;101596.94;5075499;28;20032;-35
2023/11/26 08:31:01;;;;;;;7.47;3.70;;;;;;;3.87;100.00;101601.28;5076335;28;20035;-35
2023/11/26 08:33:30;;;;;;;6.72;4.57;;;;;;;3.88;100.00;101594.91;5076501;28;20277;-35
2023/11/26 08:36:02;;;;;;;15.00;5.10;;;;;;;3.92;100.00;101597.25;5075574;28;20056;-35
2023/11/26 08:38:28;;;;;;;10.48;4.60;;;;;;;3.93;100.00;101599.75;5076395;28;20033;-36
2023/11/26 08:40:54;;;;;;;8.20;4.72;;;;;;;3.98;100.00;101593.91;5075837;28;20423;-35
2023/11/26 08:43:21;;;;;;;9.30;4.57;;;;;;;3.98;100.00;101594.72;5075685;28;20025;-35
2023/11/26 08:45:46;;;;;;;;;;;;;;;4.06;100.00;101596.56;5077045;28;20024;-35
2023/11/26 08:48:13;;;;;;;12.73;5.15;;;;;;;4.08;100.00;101590.03;5075286;28;19904;-35
2023/11/26 08:50:39;;;;;;;9.65;4.40;;;;;;;4.07;100.00;101584.84;5075375;28;20027;-35
2023/11/26 08:53:07;;;;;;;9.18;4.30;;;;;;;3.94;100.00;101549.75;5075223;28;20025;-35
2023/11/26 08:55:33;;;;;;;12.20;4.63;;;;;;;4.20;100.00;101595.88;5075360;28;20021;-35
2023/11/26 08:57:59;;;;;;;13.33;5.23;;;;;;;4.24;100.00;101583.78;5075136;28;20035;-36
2023/11/26 09:00:25;;;;;;;11.80;4.75;;;;;;;4.19;100.00;101564.72;5076230;28;20262;-35
2023/11/26 09:02:50;;;;;;;;;;;;;;;4.34;100.00;101597.84;5076059;28;20028;-35
2023/11/26 09:05:15;;;;;;;14.13;5.07;;;;;;;4.37;100.00;101599.34;5075649;28;19909;-35
2023/11/26 09:07:42;;;;;;;8.40;4.50;;;;;;;4.38;100.00;101593.78;5075010;28;20086;-35
2023/11/26 09:10:09;;;;;;;10.13;5.80;;;;;;;4.38;100.00;101587.59;5075181;28;20052;-35
2023/11/26 09:12:36;;;;;;;13.93;5.50;;;;;;;4.47;100.00;101594.63;5075679;28;20424;-35
2023/11/26 09:15:01;;;;;;;7.70;4.40;;;;;;;4.50;100.00;101598.81;5074695;28;20056;-35
2023/11/26 09:17:26;;;;;;;11.20;4.93;;;;;;;4.51;100.00;101593.25;5075813;28;20055;-35
2023/11/26 09:19:53;;;;;;;8.90;4.70;;;;;;;4.46;100.00;101587.59;5074729;28;20457;-35
2023/11/26 09:22:18;;;;;;;17.25;5.13;;;;;;;4.51;100.00;101587.06;5075527;28;20024;-36
2023/11/26 09:24:44;;;;;;;9.60;4.50;;;;;;;4.59;100.00;101598.59;5074961;28;20024;-35
2023/11/26 09:27:09;;;;;;;11.07;4.83;;;;;;;4.59;100.00;101595.94;5075708;28;20569;-35
2023/11/26 09:29:34;;;;;;;8.10;4.03;;;;;;;4.65;100.00;101602.44;5074848;28;20031;-35
2023/11/26 09:32:00;;;;;;;8.97;4.13;;;;;;;4.67;100.00;101597.72;5075107;28;20033;-35
2023/11/26 09:34:25;;;;;;;13.13;4.57;;;;;;;4.70;100.00;101600.06;5074713;28;20025;-35
2023/11/26 09:36:52;;;;;;;10.53;4.80;;;;;;;4.72;100.00;101598.03;5075307;28;20020;-35
2023/11/26 09:39:19;;;;;;;10.90;4.35;;;;;;;4.68;100.00;101593.19;5074655;28;20027;-35
2023/11/26 09:41:44;;;;;;;9.82;4.50;;;;;;;4.74;100.00;101589.84;5073745;28;20042;-35
2023/11/26 09:44:10;;;;;;;8.93;4.72;;;;;;;4.68;100.00;101575.25;5074809;28;20104;-35
2023/11/26 09:46:36;;;;;;;9.67;4.63;;;;;;;4.85;100.00;101594.81;5075017;28;20107;-35
2023/11/26 09:49:05;;;;;;;10.18;5.07;;;;;;;4.87;100.00;101600.81;5074734;28;20024;-35
2023/11/26 09:51:32;;;;;;;11.65;4.93;;;;;;;4.91;100.00;101594.09;5074596;28;20463;-35
2023/11/26 09:53:58;;;;;;;10.15;5.22;;;;;;;4.94;100.00;101595.59;5074276;28;20028;-36
2023/11/26 09:56:24;;;;;;;10.73;4.90;;;;;;;4.95;100.00;101599.94;5074410;28;20070;-35
2023/11/26 09:58:50;;;;;;;9.38;4.68;;;;;;;4.75;100.00;101562.84;5073986;28;20074;-35
2023/11/26 10:01:16;;;;;;;12.45;4.97;;;;;;;5.02;100.00;101595.53;5073991;28;20016;-35
2023/11/26 10:04:04;;;;;;;12.43;5.80;;;;;;;5.03;100.00;101599.91;5073889;28;20048;-35
2023/11/26 10:06:29;;;;;;;8.70;4.68;;;;;;;5.04;100.00;101601.56;5074656;28;20081;-35
2023/11/26 10:08:56;;;;;;;6.78;4.35;;;;;;;4.97;100.00;101584.50;5074094;28;20032;-35
2023/11/26 10:11:23;;;;;;;8.68;4.78;;;;;;;5.01;100.00;101592.03;5074541;28;20452;-35
2023/11/26 10:13:48;;;;;;;7.47;4.28;;;;;;;5.09;100.00;101601.88;5074023;28;20473;-35
2023/11/26 10:16:34;;;;;;;9.32;4.88;;;;;;;5.11;100.00;101591.81;5073656;28;20029;-35
2023/11/26 10:19:03;;;;;;;9.95;4.50;;;;;;;5.06;100.00;101586.97;5073589;28;20029;-35
2023/11/26 10:21:30;;;;;;;12.52;4.45;;;;;;;5.14;100.00;101588.78;5074114;28;20103;-35
2023/11/26 10:23:59;;;;;;;7.63;4.00;;;;;;;5.18;100.00;101592.78;5073179;28;20021;-35
2023/11/26 10:26:29;;;;;;;11.80;4.70;;;;;;;5.11;100.00;101575.72;5073511;28;20439;-35
2023/11/26 10:28:58;;;;;;;11.65;5.32;;;;;;;5.00;100.00;101554.69;5074043;28;20032;-36
2023/11/26 10:31:23;;;;;;;9.93;4.88;;;;;;;5.20;100.00;101576.50;5073735;28;20028;-35
2023/11/26 10:33:49;;;;;;;9.97;6.10;;;;;;;5.22;100.00;101571.78;5073403;28;20031;-36
2023/11/26 10:36:29;;;;;;;9.40;5.60;;;;;;;5.25;100.00;101572.28;5073712;28;20103;-35
2023/11/26 10:38:55;;;;;;;11.68;5.47;;;;;;;5.28;100.00;101576.47;5073888;28;20051;-35
2023/11/26 10:41:21;;;;;;;10.57;5.03;;;;;;;5.30;100.00;101577.94;5073472;28;20461;-35
2023/11/26 10:43:48;;;;;;;9.63;4.90;;;;;;;5.33;100.00;101576.75;5073297;28;20047;-35
2023/11/26 10:46:13;;;;;;;11.20;7.30;;;;;;;5.35;100.00;101575.53;5073771;28;20450;-35
2023/11/26 10:48:44;;;;;;;7.93;4.93;;;;;;;5.35;100.00;101567.50;5073596;28;20112;-35
2023/11/26 10:51:18;;;;;;;13.45;5.65;;;;;;;5.38;100.00;101567.16;5073386;28;20036;-35
2023/11/26 10:54:01;;;;;;;9.77;4.97;;;;;;;5.41;100.00;101566.78;5073811;28;20025;-35
2023/11/26 10:56:37;;;;;;;13.20;5.10;;;;;;;5.45;100.00;101555.69;5073760;28;20136;-35
2023/11/26 10:59:06;;;;;;;13.68;4.68;;;;;;;5.44;100.00;101557.56;5074257;28;20040;-36
2023/11/26 11:01:33;;;;;;;10.43;4.63;;;;;;;5.45;100.00;101559.22;5073722;28;20368;-35
2023/11/26 11:03:59;;;;;;;10.73;5.93;;;;;;;5.50;100.00;101547.94;5055580;28;20421;-35
2023/11/26 11:06:25;;;;;;;;;;;;;;;5.56;100.00;101547.22;5073917;28;20032;-35
2023/11/26 11:08:53;;;;;;;9.07;4.75;;;;;;;5.58;100.00;101545.19;5073373;28;19995;-36
2023/11/26 11:11:34;;;;;;;9.93;4.80;;;;;;;5.60;100.00;101554.72;5072620;28;20413;-36
2023/11/26 11:14:00;;;;;;;9.45;4.25;;;;;;;5.65;100.00;101555.00;5073673;28;20060;-36
2023/11/26 11:16:25;;;;;;;;;;;;;;;5.69;100.00;101552.81;5073404;28;20032;-35
2023/11/26 11:18:53;;;;;;;5.68;3.58;;;;;;;5.68;100.00;101551.97;5073250;28;20014;-35
2023/11/26 11:21:18;;;;;;;9.30;3.40;;;;;;;5.71;100.00;101545.44;5073715;28;20021;-36
2023/11/26 11:23:49;;;;;;;8.10;3.70;;;;;;;5.68;100.00;101543.09;5073172;28;20027;-35